Terminal Aerodrome Forecast
Issued by NWS

Home | Current Version | Previous Version | Text Only | Print | Product List | Glossary On
Versions: 1 2 3 4 5 6 7 8 9 10 11 12 13 14 15 16 17 18
542
FTUS41 KGYX 272337
TAFRKD
TAF
KRKD 272337Z 2800/2824 VRB04KT 1/2SM FG OVC002
     FM281400 20005KT 3SM BR BKN007 OVC015=

USA.gov is the U.S. government's official web portal to all federal, state and local government web resources and services.